Le Laurabrenn — FU4171 — position and weather

sailwx.info

Track history (hours):
 
Tides and Currents Weather Stations Pressure Air Temp Water Temp Dewpoint Dewpoint Depression Visibility Wind Speed Wind Dir Waves Ship Positions

Le Laurabrenn

Last reported at 2017-Sep-21 00:33 UTC. Time now 2017-Sep-24 17:43 UTC.
Position N 47°51' W 003°56'.

Length 12 m.

Type: Fishing. MMSI: 228941000.

Date/timePositionNaut miles runAvg speedWind from/ knotsBaromVisibWave heightAir tempDewpointWater temp
2017-Sep-21 00:33N 47°51' W 003°56'18 1.1
2017-Sep-20 08:29N 47°34' W 003°44'1 2.4
2017-Sep-20 07:55N 47°33' W 003°44'2 3.6
2017-Sep-20 07:24N 47°34' W 003°42'7 2.4
2017-Sep-20 04:29N 47°41' W 003°46'8 1.8
2017-Sep-19 23:58N 47°47' W 003°53'5 2.5
2017-Sep-19 21:59N 47°52' W 003°56'19 2.8
2017-Sep-19 15:05N 47°34' W 003°45'0 3.6
2017-Sep-19 14:59N 47°34' W 003°45'3 1.6
2017-Sep-19 13:24N 47°35' W 003°42'2 2.8
2017-Sep-19 12:43N 47°34' W 003°40'1 3.2
2017-Sep-19 12:30N 47°34' W 003°41'2 3.2
2017-Sep-19 11:52N 47°34' W 003°43'1 2.5
2017-Sep-19 11:26N 47°34' W 003°45'0 0.1
2017-Sep-19 09:42N 47°34' W 003°45'1 2.3
2017-Sep-19 09:28N 47°34' W 003°45'1 0.8
2017-Sep-19 08:47N 47°34' W 003°45'2 1.0
2017-Sep-19 06:41N 47°35' W 003°42'1 3.6
2017-Sep-19 06:29N 47°35' W 003°41'19 2.9
2017-Sep-18 23:58N 47°52' W 003°56'13 3.2
2017-Sep-18 19:43N 47°38' W 003°52'6 1.8
2017-Sep-18 16:13N 47°32' W 003°49'1 3.1
2017-Sep-18 15:57N 47°32' W 003°48'1 2.1
2017-Sep-18 15:30N 47°32' W 003°47'2 3.2
2017-Sep-18 15:00N 47°31' W 003°49'2 3.5
2017-Sep-18 14:30N 47°30' W 003°51'2 1.7
2017-Sep-18 13:25N 47°30' W 003°48'18 1.8
2017-Sep-18 03:53N 47°46' W 003°59'  
2017-Sep-15 23:49N 47°50' W 004°08'23 3.2
2017-Sep-15 16:31N 47°35' W 003°42'0 3.4
2017-Sep-15 16:30N 47°35' W 003°42'1 2.4
2017-Sep-15 15:55N 47°33' W 003°42'1 1.5
2017-Sep-15 15:30N 47°33' W 003°43'3 3.1
2017-Sep-15 14:36N 47°32' W 003°46'2 0.3
2017-Sep-15 07:31N 47°33' W 003°44'0 3.3
2017-Sep-15 07:25N 47°33' W 003°43'1 3.3
2017-Sep-15 06:58N 47°34' W 003°41'1 2.2
2017-Sep-15 06:30N 47°35' W 003°40'  
2017-Sep-12 03:48N 47°47' W 004°00'  
Track history (hours):
 
Tides and Currents Weather Stations Pressure Air Temp Water Temp Dewpoint Dewpoint Depression Visibility Wind Speed Wind Dir Waves Ship Positions

Le Laurabrenn

Last reported at 2017-Sep-21 00:33 UTC. Time now 2017-Sep-24 17:43 UTC.
Position N 47°51' W 003°56'.

Length 12 m.

Type: Fishing. MMSI: 228941000.

Date/timePositionNaut miles runAvg speedWind from/ knotsBaromVisibWave heightAir tempDewpointWater temp
2017-Sep-21 00:33N 47°51' W 003°56'18 1.1
2017-Sep-20 08:29N 47°34' W 003°44'1 2.4
2017-Sep-20 07:55N 47°33' W 003°44'2 3.6
2017-Sep-20 07:24N 47°34' W 003°42'7 2.4
2017-Sep-20 04:29N 47°41' W 003°46'8 1.8
2017-Sep-19 23:58N 47°47' W 003°53'5 2.5
2017-Sep-19 21:59N 47°52' W 003°56'19 2.8
2017-Sep-19 15:05N 47°34' W 003°45'0 3.6
2017-Sep-19 14:59N 47°34' W 003°45'3 1.6
2017-Sep-19 13:24N 47°35' W 003°42'2 2.8
2017-Sep-19 12:43N 47°34' W 003°40'1 3.2
2017-Sep-19 12:30N 47°34' W 003°41'2 3.2
2017-Sep-19 11:52N 47°34' W 003°43'1 2.5
2017-Sep-19 11:26N 47°34' W 003°45'0 0.1
2017-Sep-19 09:42N 47°34' W 003°45'1 2.3
2017-Sep-19 09:28N 47°34' W 003°45'1 0.8
2017-Sep-19 08:47N 47°34' W 003°45'2 1.0
2017-Sep-19 06:41N 47°35' W 003°42'1 3.6
2017-Sep-19 06:29N 47°35' W 003°41'19 2.9
2017-Sep-18 23:58N 47°52' W 003°56'13 3.2
2017-Sep-18 19:43N 47°38' W 003°52'6 1.8
2017-Sep-18 16:13N 47°32' W 003°49'1 3.1
2017-Sep-18 15:57N 47°32' W 003°48'1 2.1
2017-Sep-18 15:30N 47°32' W 003°47'2 3.2
2017-Sep-18 15:00N 47°31' W 003°49'2 3.5
2017-Sep-18 14:30N 47°30' W 003°51'2 1.7
2017-Sep-18 13:25N 47°30' W 003°48'18 1.8
2017-Sep-18 03:53N 47°46' W 003°59'  
2017-Sep-15 23:49N 47°50' W 004°08'23 3.2
2017-Sep-15 16:31N 47°35' W 003°42'0 3.4
2017-Sep-15 16:30N 47°35' W 003°42'1 2.4
2017-Sep-15 15:55N 47°33' W 003°42'1 1.5
2017-Sep-15 15:30N 47°33' W 003°43'3 3.1
2017-Sep-15 14:36N 47°32' W 003°46'2 0.3
2017-Sep-15 07:31N 47°33' W 003°44'0 3.3
2017-Sep-15 07:25N 47°33' W 003°43'1 3.3
2017-Sep-15 06:58N 47°34' W 003°41'1 2.2
2017-Sep-15 06:30N 47°35' W 003°40'  
2017-Sep-12 03:48N 47°47' W 004°00'  

Dump ship's entire track history